Station: EBLB - 12/12/2019 21:25Z (il y a 15 minutes)
EBLB 122125Z AUTO 18012G23KT 6000 OVC006/// 00/M01 Q0986 YLO
Vent du 180º - 12 kt - rafales 23 kt
Visibilité: 6000 m
Ciel couvert à 600 pieds
Température: +00ºC - Point de rosée: -01ºC - QNH: 986 hPa
Code couleur militaire: YLO (conditions IMC ou marginales)